Metar Aviation Weather Data LFTW

17°C Temp
15°C Dewpoint
% Humidity
Temperature
10 KM/H
6 MPH
5 KTS
140°
South East

Wind Speed
Data Offline
Pressure 1012.92 (hPa) - 29.91 (in)
Visibility 6.2 (mi) - 10.0 (km)

Current Conditions
LFTW
Metar :LFTW 241930Z AUTO 14005KT 9999 ///TCU 17/15 Q1013
Fri 24th May 21:30 pm

  Metar Aviation API Data Provided by https://www.checkwx.com/ PHP scripts by weather34.com ©2019